sensor_id;sensor_type;location;lat;lon;timestamp;pressure;altitude;pressure_sealevel;temperature;humidity
57102;BME280;42982;54.558;18.508;2022-07-29T00:00:39;101578.81;;;15.54;nan
57102;BME280;42982;54.558;18.508;2022-07-29T00:01:45;101571.50;;;15.55;nan
57102;BME280;42982;54.558;18.508;2022-07-29T00:02:49;101569.88;;;15.53;nan
57102;BME280;42982;54.558;18.508;2022-07-29T00:03:53;101566.13;;;15.49;nan
57102;BME280;42982;54.558;18.508;2022-07-29T00:04:55;101568.31;;;15.47;nan
57102;BME280;42982;54.558;18.508;2022-07-29T00:06:05;101562.09;;;15.47;nan
57102;BME280;42982;54.558;18.508;2022-07-29T00:07:08;101567.00;;;15.45;nan
57102;BME280;42982;54.558;18.508;2022-07-29T00:08:10;101566.69;;;15.46;nan
57102;BME280;42982;54.558;18.508;2022-07-29T00:09:12;101563.41;;;15.49;nan
57102;BME280;42982;54.558;18.508;2022-07-29T00:10:16;101570.44;;;15.50;nan
57102;BME280;42982;54.558;18.508;2022-07-29T00:11:21;101569.88;;;15.53;nan
57102;BME280;42982;54.558;18.508;2022-07-29T00:12:24;101567.97;;;15.54;nan
57102;BME280;42982;54.558;18.508;2022-07-29T00:13:28;101563.94;;;15.51;nan
57102;BME280;42982;54.558;18.508;2022-07-29T00:14:33;101565.56;;;15.52;nan
57102;BME280;42982;54.558;18.508;2022-07-29T00:15:35;101561.75;;;15.53;nan
57102;BME280;42982;54.558;18.508;2022-07-29T00:16:37;101563.06;;;15.56;nan
57102;BME280;42982;54.558;18.508;2022-07-29T00:17:44;101555.75;;;15.57;nan
57102;BME280;42982;54.558;18.508;2022-07-29T00:18:46;101559.56;;;15.56;nan
57102;BME280;42982;54.558;18.508;2022-07-29T00:19:48;101563.88;;;15.57;nan
57102;BME280;42982;54.558;18.508;2022-07-29T00:20:55;101563.88;;;15.57;nan
57102;BME280;42982;54.558;18.508;2022-07-29T00:22:02;101556.28;;;15.59;nan
57102;BME280;42982;54.558;18.508;2022-07-29T00:23:06;101564.41;;;15.59;nan
57102;BME280;42982;54.558;18.508;2022-07-29T00:24:10;101564.19;;;15.55;nan
57102;BME280;42982;54.558;18.508;2022-07-29T00:25:16;101560.66;;;15.55;nan
57102;BME280;42982;54.558;18.508;2022-07-29T00:26:18;101560.66;;;15.55;nan
57102;BME280;42982;54.558;18.508;2022-07-29T00:27:19;101559.81;;;15.54;nan
57102;BME280;42982;54.558;18.508;2022-07-29T00:28:29;101560.66;;;15.55;nan
57102;BME280;42982;54.558;18.508;2022-07-29T00:29:33;101564.97;;;15.56;nan
57102;BME280;42982;54.558;18.508;2022-07-29T00:30:34;101563.94;;;15.51;nan
57102;BME280;42982;54.558;18.508;2022-07-29T00:31:36;101567.72;;;15.50;nan
57102;BME280;42982;54.558;18.508;2022-07-29T00:32:39;101565.56;;;15.52;nan
57102;BME280;42982;54.558;18.508;2022-07-29T00:33:44;101567.16;;;15.53;nan
57102;BME280;42982;54.558;18.508;2022-07-29T00:34:48;101563.38;;;15.55;nan
57102;BME280;42982;54.558;18.508;2022-07-29T00:36:11;101572.88;;;15.52;nan
57102;BME280;42982;54.558;18.508;2022-07-29T00:37:13;101574.25;;;15.49;nan
57102;BME280;42982;54.558;18.508;2022-07-29T00:38:19;101570.50;;;15.45;nan
57102;BME280;42982;54.558;18.508;2022-07-29T00:39:21;101567.28;;;15.43;nan
57102;BME280;42982;54.558;18.508;2022-07-29T00:40:23;101569.94;;;15.48;nan
57102;BME280;42982;54.558;18.508;2022-07-29T00:41:29;101567.50;;;15.47;nan
57102;BME280;42982;54.558;18.508;2022-07-29T00:42:42;101564.53;;;15.48;nan
57102;BME280;42982;54.558;18.508;2022-07-29T00:43:46;101565.03;;;15.50;nan
57102;BME280;42982;54.558;18.508;2022-07-29T00:44:48;101561.50;;;15.50;nan
57102;BME280;42982;54.558;18.508;2022-07-29T00:45:53;101566.69;;;15.46;nan
57102;BME280;42982;54.558;18.508;2022-07-29T00:46:58;101562.88;;;15.47;nan
57102;BME280;42982;54.558;18.508;2022-07-29T00:48:03;101569.41;;;15.46;nan
57102;BME280;42982;54.558;18.508;2022-07-29T00:49:08;101562.41;;;15.40;nan
57102;BME280;42982;54.558;18.508;2022-07-29T00:50:12;101556.53;;;15.33;nan
57102;BME280;42982;54.558;18.508;2022-07-29T00:51:15;101561.66;;;15.35;nan
57102;BME280;42982;54.558;18.508;2022-07-29T00:52:16;101562.75;;;15.34;nan
57102;BME280;42982;54.558;18.508;2022-07-29T00:53:21;101567.38;;;15.33;nan
57102;BME280;42982;54.558;18.508;2022-07-29T00:54:22;101566.84;;;15.31;nan
57102;BME280;42982;54.558;18.508;2022-07-29T00:55:25;101566.03;;;15.30;nan
57102;BME280;42982;54.558;18.508;2022-07-29T00:56:27;101567.94;;;15.30;nan
57102;BME280;42982;54.558;18.508;2022-07-29T00:57:34;101569.56;;;15.31;nan
57102;BME280;42982;54.558;18.508;2022-07-29T00:58:36;101561.97;;;15.33;nan
57102;BME280;42982;54.558;18.508;2022-07-29T00:59:39;101565.78;;;15.32;nan
57102;BME280;42982;54.558;18.508;2022-07-29T01:00:43;101570.34;;;15.32;nan
57102;BME280;42982;54.558;18.508;2022-07-29T01:01:45;101564.13;;;15.31;nan
57102;BME280;42982;54.558;18.508;2022-07-29T01:02:50;101564.13;;;15.31;nan
57102;BME280;42982;54.558;18.508;2022-07-29T01:03:55;101564.94;;;15.32;nan
57102;BME280;42982;54.558;18.508;2022-07-29T01:04:57;101564.66;;;15.33;nan
57102;BME280;42982;54.558;18.508;2022-07-29T01:06:00;101569.56;;;15.31;nan
57102;BME280;42982;54.558;18.508;2022-07-29T01:07:07;101560.84;;;15.34;nan
57102;BME280;42982;54.558;18.508;2022-07-29T01:08:11;101561.16;;;15.33;nan
57102;BME280;42982;54.558;18.508;2022-07-29T01:09:14;101566.56;;;15.33;nan
57102;BME280;42982;54.558;18.508;2022-07-29T01:10:18;101560.34;;;15.32;nan
57102;BME280;42982;54.558;18.508;2022-07-29T01:11:22;101563.06;;;15.32;nan
57102;BME280;42982;54.558;18.508;2022-07-29T01:12:27;101564.69;;;15.28;nan
57102;BME280;42982;54.558;18.508;2022-07-29T01:13:34;101562.88;;;15.23;nan
57102;BME280;42982;54.558;18.508;2022-07-29T01:14:40;101565.00;;;15.26;nan
57102;BME280;42982;54.558;18.508;2022-07-29T01:15:47;101573.13;;;15.26;nan
57102;BME280;42982;54.558;18.508;2022-07-29T01:17:00;101565.84;;;15.22;nan
57102;BME280;42982;54.558;18.508;2022-07-29T01:22:25;101567.03;;;15.11;nan
57102;BME280;42982;54.558;18.508;2022-07-29T01:26:42;101565.50;;;14.99;nan
57102;BME280;42982;54.558;18.508;2022-07-29T01:29:25;101568.22;;;14.99;nan
57102;BME280;42982;54.558;18.508;2022-07-29T01:30:29;101565.56;;;14.94;nan
57102;BME280;42982;54.558;18.508;2022-07-29T01:31:42;101575.78;;;14.97;nan
57102;BME280;42982;54.558;18.508;2022-07-29T01:32:47;101572.53;;;15.00;nan
57102;BME280;42982;54.558;18.508;2022-07-29T01:33:58;101564.41;;;15.00;nan
57102;BME280;42982;54.558;18.508;2022-07-29T01:36:08;101569.31;;;14.98;nan
57102;BME280;42982;54.558;18.508;2022-07-29T01:37:29;101573.09;;;14.97;nan
57102;BME280;42982;54.558;18.508;2022-07-29T01:38:35;101562.78;;;14.99;nan
57102;BME280;42982;54.558;18.508;2022-07-29T01:39:41;101566.59;;;14.98;nan
57102;BME280;42982;54.558;18.508;2022-07-29T01:40:54;101564.41;;;15.00;nan
57102;BME280;42982;54.558;18.508;2022-07-29T01:42:12;101557.38;;;14.99;nan
57102;BME280;42982;54.558;18.508;2022-07-29T01:43:18;101563.34;;;14.96;nan
57102;BME280;42982;54.558;18.508;2022-07-29T01:44:37;101559.53;;;14.97;nan
57102;BME280;42982;54.558;18.508;2022-07-29T01:45:43;101559.53;;;14.97;nan
57102;BME280;42982;54.558;18.508;2022-07-29T01:46:49;101558.19;;;15.00;nan
57102;BME280;42982;54.558;18.508;2022-07-29T01:48:03;101560.63;;;15.01;nan
57102;BME280;42982;54.558;18.508;2022-07-29T01:49:10;101557.38;;;14.99;nan
57102;BME280;42982;54.558;18.508;2022-07-29T01:50:17;101556.09;;;14.92;nan
57102;BME280;42982;54.558;18.508;2022-07-29T01:51:30;101554.75;;;14.89;nan
57102;BME280;42982;54.558;18.508;2022-07-29T01:52:39;101556.13;;;14.87;nan
57102;BME280;42982;54.558;18.508;2022-07-29T01:54:26;101552.88;;;14.84;nan
57102;BME280;42982;54.558;18.508;2022-07-29T01:55:13;101545.31;;;14.81;nan
57102;BME280;42982;54.558;18.508;2022-07-29T01:56:18;101549.94;;;14.81;nan
57102;BME280;42982;54.558;18.508;2022-07-29T01:57:26;101555.09;;;14.82;nan
57102;BME280;42982;54.558;18.508;2022-07-29T01:58:32;101553.19;;;14.83;nan
57102;BME280;42982;54.558;18.508;2022-07-29T01:59:37;101552.38;;;14.82;nan
57102;BME280;42982;54.558;18.508;2022-07-29T02:00:40;101553.72;;;14.85;nan
57102;BME280;42982;54.558;18.508;2022-07-29T02:01:45;101549.09;;;14.86;nan
57102;BME280;42982;54.558;18.508;2022-07-29T02:02:49;101554.22;;;14.87;nan
57102;BME280;42982;54.558;18.508;2022-07-29T02:03:55;101541.78;;;14.86;nan
57102;BME280;42982;54.558;18.508;2022-07-29T02:05:00;101551.56;;;14.82;nan
57102;BME280;42982;54.558;18.508;2022-07-29T02:06:07;101552.88;;;14.84;nan
57102;BME280;42982;54.558;18.508;2022-07-29T02:07:13;101543.94;;;14.84;nan
57102;BME280;42982;54.558;18.508;2022-07-29T02:08:19;101551.28;;;14.83;nan
57102;BME280;42982;54.558;18.508;2022-07-29T02:09:20;101550.16;;;14.84;nan
57102;BME280;42982;54.558;18.508;2022-07-29T02:10:29;101548.56;;;14.83;nan
57102;BME280;42982;54.558;18.508;2022-07-29T02:11:34;101556.41;;;14.85;nan
57102;BME280;42982;54.558;18.508;2022-07-29T02:12:38;101552.63;;;14.86;nan
57102;BME280;42982;54.558;18.508;2022-07-29T02:13:41;101557.47;;;14.89;nan
57102;BME280;42982;54.558;18.508;2022-07-29T02:14:50;101554.75;;;14.89;nan
57102;BME280;42982;54.558;18.508;2022-07-29T02:15:53;101560.16;;;14.89;nan
57102;BME280;42982;54.558;18.508;2022-07-29T02:17:00;101554.22;;;14.87;nan
57102;BME280;42982;54.558;18.508;2022-07-29T02:18:09;101558.59;;;14.83;nan
57102;BME280;42982;54.558;18.508;2022-07-29T02:19:13;101562.13;;;14.78;nan
57102;BME280;42982;54.558;18.508;2022-07-29T02:20:16;101562.97;;;14.79;nan
57102;BME280;42982;54.558;18.508;2022-07-29T02:21:24;101559.41;;;14.78;nan
57102;BME280;42982;54.558;18.508;2022-07-29T02:22:28;101565.69;;;14.74;nan
57102;BME280;42982;54.558;18.508;2022-07-29T02:23:34;101563.00;;;14.69;nan
57102;BME280;42982;54.558;18.508;2022-07-29T02:24:40;101563.06;;;14.64;nan
57102;BME280;42982;54.558;18.508;2022-07-29T02:25:49;101559.78;;;14.67;nan
57102;BME280;42982;54.558;18.508;2022-07-29T02:26:56;101558.72;;;14.63;nan
57102;BME280;42982;54.558;18.508;2022-07-29T02:28:04;101562.00;;;14.59;nan
57102;BME280;42982;54.558;18.508;2022-07-29T02:29:09;101555.50;;;14.60;nan
57102;BME280;42982;54.558;18.508;2022-07-29T02:30:12;101559.28;;;14.59;nan
57102;BME280;42982;54.558;18.508;2022-07-29T02:31:16;101560.38;;;14.58;nan
57102;BME280;42982;54.558;18.508;2022-07-29T02:32:21;101561.75;;;14.56;nan
57102;BME280;42982;54.558;18.508;2022-07-29T02:33:25;101555.25;;;14.57;nan
57102;BME280;42982;54.558;18.508;2022-07-29T02:34:32;101560.38;;;14.58;nan
57102;BME280;42982;54.558;18.508;2022-07-29T02:35:38;101557.69;;;14.58;nan
57102;BME280;42982;54.558;18.508;2022-07-29T02:36:45;101564.19;;;14.57;nan
57102;BME280;42982;54.558;18.508;2022-07-29T02:37:50;101564.19;;;14.57;nan
57102;BME280;42982;54.558;18.508;2022-07-29T02:39:14;101561.47;;;14.57;nan
57102;BME280;42982;54.558;18.508;2022-07-29T02:40:17;101567.69;;;14.58;nan
57102;BME280;42982;54.558;18.508;2022-07-29T02:41:35;101566.09;;;14.57;nan
57102;BME280;42982;54.558;18.508;2022-07-29T02:42:44;101566.34;;;14.60;nan
57102;BME280;42982;54.558;18.508;2022-07-29T02:43:50;101562.84;;;14.55;nan
57102;BME280;42982;54.558;18.508;2022-07-29T02:44:55;101562.03;;;14.54;nan
57102;BME280;42982;54.558;18.508;2022-07-29T02:45:58;101562.84;;;14.55;nan
57102;BME280;42982;54.558;18.508;2022-07-29T02:47:16;101564.44;;;14.56;nan
57102;BME280;42982;54.558;18.508;2022-07-29T02:48:27;101564.69;;;14.59;nan
57102;BME280;42982;54.558;18.508;2022-07-29T02:49:42;101562.53;;;14.62;nan
57102;BME280;42982;54.558;18.508;2022-07-29T02:51:00;101567.41;;;14.59;nan
57102;BME280;42982;54.558;18.508;2022-07-29T02:52:06;101563.06;;;14.64;nan
57102;BME280;42982;54.558;18.508;2022-07-29T02:53:16;101556.88;;;14.58;nan
57102;BME280;42982;54.558;18.508;2022-07-29T02:54:28;101563.13;;;14.53;nan
57102;BME280;42982;54.558;18.508;2022-07-29T02:55:40;101561.25;;;14.54;nan
57102;BME280;42982;54.558;18.508;2022-07-29T02:56:44;101563.13;;;14.53;nan
57102;BME280;42982;54.558;18.508;2022-07-29T02:58:01;101562.03;;;14.54;nan
57102;BME280;42982;54.558;18.508;2022-07-29T02:59:09;101559.28;;;14.59;nan
57102;BME280;42982;54.558;18.508;2022-07-29T03:00:12;101562.53;;;14.62;nan
57102;BME280;42982;54.558;18.508;2022-07-29T03:01:16;101561.44;;;14.63;nan
57102;BME280;42982;54.558;18.508;2022-07-29T03:02:24;101559.56;;;14.63;nan
57102;BME280;42982;54.558;18.508;2022-07-29T03:03:34;101572.00;;;14.64;nan
57102;BME280;42982;54.558;18.508;2022-07-29T03:04:39;101560.38;;;14.64;nan
57102;BME280;42982;54.558;18.508;2022-07-29T03:05:45;101563.88;;;14.64;nan
57102;BME280;42982;54.558;18.508;2022-07-29T03:06:48;101563.88;;;14.64;nan
57102;BME280;42982;54.558;18.508;2022-07-29T03:08:05;101563.00;;;14.69;nan
57102;BME280;42982;54.558;18.508;2022-07-29T03:09:08;101554.63;;;14.70;nan
57102;BME280;42982;54.558;18.508;2022-07-29T03:10:16;101558.13;;;14.76;nan
57102;BME280;42982;54.558;18.508;2022-07-29T03:11:24;101553.50;;;14.76;nan
57102;BME280;42982;54.558;18.508;2022-07-29T03:12:28;101555.91;;;14.78;nan
57102;BME280;42982;54.558;18.508;2022-07-29T03:13:35;101551.59;;;14.77;nan
57102;BME280;42982;54.558;18.508;2022-07-29T03:14:38;101553.75;;;14.80;nan
57102;BME280;42982;54.558;18.508;2022-07-29T03:15:42;101552.88;;;14.84;nan
57102;BME280;42982;54.558;18.508;2022-07-29T03:16:46;101554.22;;;14.87;nan
57102;BME280;42982;54.558;18.508;2022-07-29T03:17:50;101548.25;;;14.90;nan
57102;BME280;42982;54.558;18.508;2022-07-29T03:18:58;101547.09;;;14.96;nan
57102;BME280;42982;54.558;18.508;2022-07-29T03:19:59;101552.44;;;15.06;nan
57102;BME280;42982;54.558;18.508;2022-07-29T03:21:03;101549.41;;;15.13;nan
57102;BME280;42982;54.558;18.508;2022-07-29T03:22:06;101546.09;;;15.16;nan
57102;BME280;42982;54.558;18.508;2022-07-29T03:23:09;101548.50;;;15.23;nan
57102;BME280;42982;54.558;18.508;2022-07-29T03:24:32;101553.28;;;15.31;nan
57102;BME280;42982;54.558;18.508;2022-07-29T03:25:34;101558.59;;;15.41;nan
57102;BME280;42982;54.558;18.508;2022-07-29T03:26:37;101550.16;;;15.48;nan
57102;BME280;42982;54.558;18.508;2022-07-29T03:27:43;101547.69;;;15.51;nan
57102;BME280;42982;54.558;18.508;2022-07-29T03:28:52;101548.72;;;15.56;nan
57102;BME280;42982;54.558;18.508;2022-07-29T03:29:55;101557.06;;;15.59;nan
57102;BME280;42982;54.558;18.508;2022-07-29T03:30:57;101555.75;;;15.57;nan
57102;BME280;42982;54.558;18.508;2022-07-29T03:32:01;101559.50;;;15.61;nan
57102;BME280;42982;54.558;18.508;2022-07-29T03:33:04;101556.22;;;15.64;nan
57102;BME280;42982;54.558;18.508;2022-07-29T03:34:06;101553.19;;;15.70;nan
57102;BME280;42982;54.558;18.508;2022-07-29T03:35:09;101559.88;;;15.78;nan
57102;BME280;42982;54.558;18.508;2022-07-29T03:36:11;101557.13;;;15.83;nan
57102;BME280;42982;54.558;18.508;2022-07-29T03:37:15;101553.25;;;15.89;nan
57102;BME280;42982;54.558;18.508;2022-07-29T03:38:18;101554.72;;;16.01;nan
57102;BME280;42982;54.558;18.508;2022-07-29T03:39:24;101558.41;;;16.10;nan
57102;BME280;42982;54.558;18.508;2022-07-29T03:41:34;101555.94;;;16.32;nan
57102;BME280;42982;54.558;18.508;2022-07-29T03:42:40;101560.13;;;16.43;nan
57102;BME280;42982;54.558;18.508;2022-07-29T03:43:46;101561.69;;;16.50;nan
57102;BME280;42982;54.558;18.508;2022-07-29T03:44:50;101559.91;;;16.59;nan
57102;BME280;42982;54.558;18.508;2022-07-29T03:45:55;101563.56;;;16.68;nan
57102;BME280;42982;54.558;18.508;2022-07-29T03:46:59;101561.31;;;16.75;nan
57102;BME280;42982;54.558;18.508;2022-07-29T03:48:09;101559.03;;;16.82;nan
57102;BME280;42982;54.558;18.508;2022-07-29T03:49:14;101560.94;;;16.82;nan
57102;BME280;42982;54.558;18.508;2022-07-29T03:50:18;101561.38;;;16.89;nan
57102;BME280;42982;54.558;18.508;2022-07-29T03:51:22;101560.03;;;16.86;nan
57102;BME280;42982;54.558;18.508;2022-07-29T03:52:24;101560.63;;;16.83;nan
57102;BME280;42982;54.558;18.508;2022-07-29T03:53:25;101566.94;;;16.60;nan
57102;BME280;42982;54.558;18.508;2022-07-29T03:54:32;101566.16;;;16.40;nan
57102;BME280;42982;54.558;18.508;2022-07-29T03:55:39;101566.34;;;16.25;nan
57102;BME280;42982;54.558;18.508;2022-07-29T03:56:45;101567.38;;;16.29;nan
57102;BME280;42982;54.558;18.508;2022-07-29T03:57:49;101563.34;;;16.27;nan
57102;BME280;42982;54.558;18.508;2022-07-29T03:58:54;101569.22;;;16.15;nan
57102;BME280;42982;54.558;18.508;2022-07-29T03:59:57;101566.63;;;16.05;nan
57102;BME280;42982;54.558;18.508;2022-07-29T04:01:01;101569.66;;;15.98;nan
57102;BME280;42982;54.558;18.508;2022-07-29T04:02:05;101575.41;;;15.96;nan
57102;BME280;42982;54.558;18.508;2022-07-29T04:03:08;101569.97;;;15.96;nan
57102;BME280;42982;54.558;18.508;2022-07-29T04:04:10;101570.56;;;15.93;nan
57102;BME280;42982;54.558;18.508;2022-07-29T04:05:14;101566.81;;;15.89;nan
57102;BME280;42982;54.558;18.508;2022-07-29T04:06:15;101559.75;;;15.88;nan
57102;BME280;42982;54.558;18.508;2022-07-29T04:07:20;101567.97;;;15.83;nan
57102;BME280;42982;54.558;18.508;2022-07-29T04:08:22;101566.63;;;15.81;nan
57102;BME280;42982;54.558;18.508;2022-07-29T04:09:24;101561.22;;;15.81;nan
57102;BME280;42982;54.558;18.508;2022-07-29T04:10:26;101562.59;;;15.78;nan
57102;BME280;42982;54.558;18.508;2022-07-29T04:11:31;101562.06;;;15.76;nan
57102;BME280;42982;54.558;18.508;2022-07-29T04:12:37;101569.41;;;15.75;nan
57102;BME280;42982;54.558;18.508;2022-07-29T04:13:42;101567.78;;;15.74;nan
57102;BME280;42982;54.558;18.508;2022-07-29T04:14:46;101572.41;;;15.74;nan
57102;BME280;42982;54.558;18.508;2022-07-29T04:15:49;101568.59;;;15.75;nan
57102;BME280;42982;54.558;18.508;2022-07-29T04:16:50;101571.59;;;15.73;nan
57102;BME280;42982;54.558;18.508;2022-07-29T04:17:51;101568.06;;;15.73;nan
57102;BME280;42982;54.558;18.508;2022-07-29T04:18:56;101570.84;;;15.68;nan
57102;BME280;42982;54.558;18.508;2022-07-29T04:19:59;101571.38;;;15.70;nan
57102;BME280;42982;54.558;18.508;2022-07-29T04:21:04;101571.31;;;15.75;nan
57102;BME280;42982;54.558;18.508;2022-07-29T04:22:07;101567.22;;;16.02;nan
57102;BME280;42982;54.558;18.508;2022-07-29T04:23:09;101570.63;;;16.31;nan
57102;BME280;42982;54.558;18.508;2022-07-29T04:24:14;101579.50;;;16.56;nan
57102;BME280;42982;54.558;18.508;2022-07-29T04:25:15;101566.06;;;16.45;nan
57102;BME280;42982;54.558;18.508;2022-07-29T04:26:18;101569.00;;;16.30;nan
57102;BME280;42982;54.558;18.508;2022-07-29T04:27:20;101567.59;;;16.33;nan
57102;BME280;42982;54.558;18.508;2022-07-29T04:28:22;101579.41;;;16.23;nan
57102;BME280;42982;54.558;18.508;2022-07-29T04:29:29;101581.31;;;16.41;nan
57102;BME280;42982;54.558;18.508;2022-07-29T04:30:33;101577.06;;;16.73;nan
57102;BME280;42982;54.558;18.508;2022-07-29T04:31:38;101577.38;;;16.72;nan
57102;BME280;42982;54.558;18.508;2022-07-29T04:32:43;101577.59;;;16.56;nan
57102;BME280;42982;54.558;18.508;2022-07-29T04:33:44;101575.84;;;16.47;nan
57102;BME280;42982;54.558;18.508;2022-07-29T04:34:46;101580.38;;;16.70;nan
57102;BME280;42982;54.558;18.508;2022-07-29T04:35:49;101577.75;;;16.84;nan
57102;BME280;42982;54.558;18.508;2022-07-29T04:36:51;101577.03;;;17.11;nan
57102;BME280;42982;54.558;18.508;2022-07-29T04:37:54;101580.78;;;17.15;nan
57102;BME280;42982;54.558;18.508;2022-07-29T04:38:55;101582.63;;;17.01;nan
57102;BME280;42982;54.558;18.508;2022-07-29T04:39:59;101577.47;;;17.18;nan
57102;BME280;42982;54.558;18.508;2022-07-29T04:41:01;101571.16;;;17.36;nan
57102;BME280;42982;54.558;18.508;2022-07-29T04:42:03;101578.69;;;17.26;nan
57102;BME280;42982;54.558;18.508;2022-07-29T04:43:05;101575.19;;;17.39;nan
57102;BME280;42982;54.558;18.508;2022-07-29T04:44:08;101567.66;;;17.64;nan
57102;BME280;42982;54.558;18.508;2022-07-29T04:45:10;101571.94;;;17.83;nan
57102;BME280;42982;54.558;18.508;2022-07-29T04:46:12;101573.13;;;18.05;nan
57102;BME280;42982;54.558;18.508;2022-07-29T04:47:17;101570.59;;;18.22;nan
57102;BME280;42982;54.558;18.508;2022-07-29T04:48:21;101568.81;;;18.40;nan
57102;BME280;42982;54.558;18.508;2022-07-29T04:49:23;101565.75;;;18.56;nan
57102;BME280;42982;54.558;18.508;2022-07-29T04:50:27;101560.63;;;18.54;nan
57102;BME280;42982;54.558;18.508;2022-07-29T04:51:30;101570.66;;;18.31;nan
57102;BME280;42982;54.558;18.508;2022-07-29T04:52:32;101574.53;;;18.16;nan
57102;BME280;42982;54.558;18.508;2022-07-29T04:53:35;101569.28;;;18.06;nan
57102;BME280;42982;54.558;18.508;2022-07-29T04:54:42;101564.97;;;17.91;nan
57102;BME280;42982;54.558;18.508;2022-07-29T04:55:47;101563.88;;;17.78;nan
57102;BME280;42982;54.558;18.508;2022-07-29T04:56:49;101563.94;;;17.73;nan
57102;BME280;42982;54.558;18.508;2022-07-29T04:57:54;101566.75;;;17.68;nan
57102;BME280;42982;54.558;18.508;2022-07-29T04:58:57;101578.22;;;17.65;nan
57102;BME280;42982;54.558;18.508;2022-07-29T04:59:59;101564.84;;;17.55;nan
57102;BME280;42982;54.558;18.508;2022-07-29T05:01:02;101567.06;;;17.53;nan
57102;BME280;42982;54.558;18.508;2022-07-29T05:02:04;101566.84;;;17.49;nan
57102;BME280;42982;54.558;18.508;2022-07-29T05:03:07;101572.59;;;17.48;nan
57102;BME280;42982;54.558;18.508;2022-07-29T05:04:10;101573.91;;;17.50;nan
57102;BME280;42982;54.558;18.508;2022-07-29T05:05:11;101568.47;;;17.64;nan
57102;BME280;42982;54.558;18.508;2022-07-29T05:06:14;101569.91;;;17.89;nan
57102;BME280;42982;54.558;18.508;2022-07-29T05:07:19;101566.97;;;18.13;nan
57102;BME280;42982;54.558;18.508;2022-07-29T05:08:20;101569.44;;;18.37;nan
57102;BME280;42982;54.558;18.508;2022-07-29T05:09:22;101575.47;;;18.48;nan
57102;BME280;42982;54.558;18.508;2022-07-29T05:10:25;101569.00;;;18.44;nan
57102;BME280;42982;54.558;18.508;2022-07-29T05:11:27;101570.56;;;18.36;nan
57102;BME280;42982;54.558;18.508;2022-07-29T05:12:28;101573.69;;;18.29;nan
57102;BME280;42982;54.558;18.508;2022-07-29T05:13:31;101576.81;;;18.37;nan
57102;BME280;42982;54.558;18.508;2022-07-29T05:14:33;101573.13;;;18.55;nan
57102;BME280;42982;54.558;18.508;2022-07-29T05:15:36;101572.44;;;18.72;nan
57102;BME280;42982;54.558;18.508;2022-07-29T05:16:38;101576.03;;;18.95;nan
57102;BME280;42982;54.558;18.508;2022-07-29T05:17:41;101577.13;;;19.16;nan
57102;BME280;42982;54.558;18.508;2022-07-29T05:18:44;101579.84;;;19.39;nan
57102;BME280;42982;54.558;18.508;2022-07-29T05:19:49;101573.75;;;19.42;nan
57102;BME280;42982;54.558;18.508;2022-07-29T05:20:53;101583.59;;;19.60;nan
57102;BME280;42982;54.558;18.508;2022-07-29T05:21:57;101578.25;;;19.78;nan
57102;BME280;42982;54.558;18.508;2022-07-29T05:23:00;101576.81;;;19.89;nan
57102;BME280;42982;54.558;18.508;2022-07-29T05:24:03;101587.06;;;19.75;nan
57102;BME280;42982;54.558;18.508;2022-07-29T05:25:06;101586.00;;;19.93;nan
57102;BME280;42982;54.558;18.508;2022-07-29T05:26:11;101581.06;;;20.12;nan
57102;BME280;42982;54.558;18.508;2022-07-29T05:27:13;101581.91;;;20.22;nan
57102;BME280;42982;54.558;18.508;2022-07-29T05:28:15;101585.44;;;20.31;nan
57102;BME280;42982;54.558;18.508;2022-07-29T05:29:17;101576.47;;;20.48;nan
57102;BME280;42982;54.558;18.508;2022-07-29T05:30:19;101582.78;;;20.66;nan
57102;BME280;42982;54.558;18.508;2022-07-29T05:31:21;101587.56;;;20.77;nan
57102;BME280;42982;54.558;18.508;2022-07-29T05:32:24;101580.66;;;20.80;nan
57102;BME280;42982;54.558;18.508;2022-07-29T05:33:25;101586.47;;;20.87;nan
57102;BME280;42982;54.558;18.508;2022-07-29T05:34:30;101582.44;;;20.67;nan
57102;BME280;42982;54.558;18.508;2022-07-29T05:35:32;101582.13;;;20.69;nan
57102;BME280;42982;54.558;18.508;2022-07-29T05:36:36;101582.75;;;20.57;nan
57102;BME280;42982;54.558;18.508;2022-07-29T05:37:40;101579.72;;;20.76;nan
57102;BME280;42982;54.558;18.508;2022-07-29T05:38:42;101590.31;;;20.69;nan
57102;BME280;42982;54.558;18.508;2022-07-29T05:39:47;101586.47;;;20.52;nan
57102;BME280;42982;54.558;18.508;2022-07-29T05:40:50;101587.38;;;20.39;nan
57102;BME280;42982;54.558;18.508;2022-07-29T05:41:52;101573.72;;;20.48;nan
57102;BME280;42982;54.558;18.508;2022-07-29T05:42:53;101574.72;;;20.78;nan
57102;BME280;42982;54.558;18.508;2022-07-29T05:43:56;101584.84;;;20.95;nan
57102;BME280;42982;54.558;18.508;2022-07-29T05:45:02;101581.25;;;21.12;nan
57102;BME280;42982;54.558;18.508;2022-07-29T05:46:06;101583.47;;;21.27;nan
57102;BME280;42982;54.558;18.508;2022-07-29T05:47:08;101582.50;;;21.40;nan
57102;BME280;42982;54.558;18.508;2022-07-29T05:49:12;101577.91;;;21.62;nan
57102;BME280;42982;54.558;18.508;2022-07-29T05:50:14;101581.41;;;21.71;nan
57102;BME280;42982;54.558;18.508;2022-07-29T05:51:15;101581.88;;;21.82;nan
57102;BME280;42982;54.558;18.508;2022-07-29T05:52:18;101583.94;;;21.85;nan
57102;BME280;42982;54.558;18.508;2022-07-29T05:53:21;101577.59;;;21.93;nan
57102;BME280;42982;54.558;18.508;2022-07-29T05:54:22;101576.75;;;22.01;nan
57102;BME280;42982;54.558;18.508;2022-07-29T05:55:25;101573.63;;;22.11;nan
57102;BME280;42982;54.558;18.508;2022-07-29T05:56:27;101579.41;;;22.18;nan